Time;durP1;ratioP1;P1;durP2;ratioP2;P2;SDS_P1;SDS_P2;PMS_P1;PMS_P2;Temp;Humidity;BMP_temperature;BMP_pressure;BME280_temperature;BME280_humidity;BME280_pressure;Samples;Min_cycle;Max_cycle;Signal;HPM_P1;HPM_P2
2021/12/29 00:01:24;;;;;;;40.08;14.68;;;;;;;;;;4905831;29;20417;-75
2021/12/29 00:03:50;;;;;;;42.92;15.75;;;;;;;;;;4890052;29;20417;-75
2021/12/29 00:06:16;;;;;;;46.28;17.15;;;;;;;;;;4879704;29;20501;-75
2021/12/29 00:08:43;;;;;;;43.78;16.75;;;;;;;;;;4887509;29;20455;-75
2021/12/29 00:11:09;;;;;;;46.17;16.17;;;;;;;;;;4905203;29;20496;-75
2021/12/29 00:13:35;;;;;;;43.80;17.30;;;;;;;;;;4909047;29;20706;-75
2021/12/29 00:16:01;;;;;;;47.88;17.35;;;;;;;;;;4885545;29;20437;-75
2021/12/29 00:18:29;;;;;;;53.67;18.38;;;;;;;;;;4896286;29;20955;-75
2021/12/29 00:20:55;;;;;;;56.03;19.33;;;;;;;;;;4896414;29;20936;-75
2021/12/29 00:23:22;;;;;;;55.08;18.65;;;;;;;;;;4888269;29;20502;-75
2021/12/29 00:25:48;;;;;;;57.13;19.00;;;;;;;;;;4901823;29;20513;-75
2021/12/29 00:28:14;;;;;;;59.08;18.73;;;;;;;;;;4885433;29;20421;-75
2021/12/29 00:30:41;;;;;;;63.40;20.50;;;;;;;;;;4886114;29;20413;-75
2021/12/29 00:33:07;;;;;;;75.03;20.75;;;;;;;;;;4904448;29;20428;-75
2021/12/29 00:35:35;;;;;;;74.90;21.13;;;;;;;;;;4893256;29;20831;-75
2021/12/29 00:38:03;;;;;;;74.95;21.33;;;7.20;99.90;;;;;;4918014;29;20437;-77
2021/12/29 00:40:29;;;;;;;77.85;21.20;;;;;;;;;;4902068;29;20428;-77
2021/12/29 00:42:56;;;;;;;68.28;21.42;;;;;;;;;;4904067;29;20425;-78
2021/12/29 00:45:22;;;;;;;70.32;20.70;;;;;;;;;;4896440;29;20475;-78
2021/12/29 00:47:50;;;;;;;67.72;20.73;;;;;;;;;;4893879;29;20444;-77
2021/12/29 00:50:16;;;;;;;79.03;22.52;;;;;;;;;;4884854;29;20430;-78
2021/12/29 00:52:45;;;;;;;70.95;21.13;;;7.00;99.90;;;;;;4900893;29;20417;-78
2021/12/29 00:55:12;;;;;;;77.93;21.58;;;;;;;;;;4894821;29;20425;-78
2021/12/29 00:57:38;;;;;;;73.18;22.00;;;;;;;;;;4904552;29;20789;-78
2021/12/29 01:00:08;;;;;;;73.32;22.15;;;;;;;;;;4900704;29;20468;-77
2021/12/29 01:02:34;;;;;;;86.65;22.63;;;;;;;;;;4909823;29;20530;-77
2021/12/29 01:05:01;;;;;;;83.32;23.52;;;;;;;;;;4900059;29;20457;-77
2021/12/29 01:07:27;;;;;;;86.80;23.40;;;;;;;;;;4882678;29;20436;-77
2021/12/29 01:09:53;;;;;;;93.55;25.10;;;;;;;;;;4890523;29;20911;-77
2021/12/29 01:12:19;;;;;;;98.95;25.45;;;;;;;;;;4896125;29;20421;-77
2021/12/29 01:14:53;;;;;;;101.75;25.73;;;;;;;;;;4899908;29;20440;-77
2021/12/29 01:17:20;;;;;;;106.10;26.42;;;;;;;;;;4881597;29;20460;-77
2021/12/29 01:19:46;;;;;;;120.50;28.50;;;;;;;;;;4888997;29;20417;-77
2021/12/29 01:22:12;;;;;;;122.95;29.38;;;;;;;;;;4899753;29;20456;-77
2021/12/29 01:24:38;;;;;;;126.47;29.50;;;;;;;;;;4896143;29;20413;-77
2021/12/29 01:27:04;;;;;;;121.10;28.60;;;;;;;;;;4881270;29;20473;-77
2021/12/29 01:29:30;;;;;;;136.18;31.13;;;;;;;;;;4897165;29;20929;-78
2021/12/29 01:32:00;;;;;;;130.95;30.23;;;;;;;;;;4919093;29;20415;-78
2021/12/29 01:34:27;;;;;;;148.32;31.58;;;;;;;;;;4897932;29;20428;-78
2021/12/29 01:36:53;;;;;;;157.15;32.03;;;;;;;;;;4870975;29;20432;-77
2021/12/29 01:39:20;;;;;;;157.02;32.25;;;;;;;;;;4890596;29;20968;-78
2021/12/29 01:41:47;;;;;;;184.40;33.25;;;;;;;;;;4880763;29;20568;-78
2021/12/29 01:44:14;;;;;;;190.32;34.67;;;;;;;;;;4913475;29;20428;-78
2021/12/29 01:46:41;;;;;;;167.82;31.85;;;;;;;;;;4880557;29;20433;-77
2021/12/29 01:49:08;;;;;;;179.80;30.13;;;7.50;99.90;;;;;;4896438;29;20424;-77
2021/12/29 01:51:35;;;;;;;149.65;26.70;;;;;;;;;;4908734;29;20417;-77
2021/12/29 01:54:46;;;;;;;108.03;23.40;;;;;;;;;;4881795;29;20754;-77
2021/12/29 01:56:47;;;;;;;129.77;23.60;;;;;;;;;;4874762;29;20451;-77
2021/12/29 01:59:14;;;;;;;93.85;20.13;;;;;;;;;;4883648;29;20451;-78
2021/12/29 02:01:40;;;;;;;96.30;18.40;;;;;;;;;;4893378;29;20421;-78
2021/12/29 02:04:06;;;;;;;102.07;19.58;;;;;;;;;;4901505;29;20476;-78
2021/12/29 02:06:33;;;;;;;98.57;18.38;;;;;;;;;;4894799;29;20425;-78
2021/12/29 02:08:59;;;;;;;100.15;17.35;;;;;;;;;;4894518;29;20922;-78
2021/12/29 02:11:29;;;;;;;93.85;18.08;;;;;;;;;;4895211;29;20454;-78
2021/12/29 02:14:04;;;;;;;99.97;18.75;;;;;;;;;;4891750;29;20417;-78
2021/12/29 02:16:30;;;;;;;83.45;17.75;;;;;;;;;;4896276;29;20418;-78
2021/12/29 02:18:57;;;;;;;82.82;17.55;;;;;;;;;;4912684;29;20437;-78
2021/12/29 02:21:25;;;;;;;70.43;16.20;;;;;;;;;;4900928;29;20530;-78
2021/12/29 02:24:36;;;;;;;71.15;16.75;;;;;;;;;;4879837;29;20493;-78
2021/12/29 02:26:41;;;;;;;70.63;17.35;;;;;;;;;;4880584;29;20452;-78
2021/12/29 02:29:09;;;;;;;64.78;17.50;;;;;;;;;;4893716;29;20442;-78
2021/12/29 02:31:36;;;;;;;65.88;17.23;;;;;;;;;;4893174;29;20433;-78
2021/12/29 02:34:03;;;;;;;73.82;18.50;;;;;;;;;;4912603;29;20438;-78
2021/12/29 02:36:29;;;;;;;73.75;19.20;;;;;;;;;;4906104;29;20939;-78
2021/12/29 02:38:56;;;;;;;64.47;19.80;;;;;;;;;;4894142;29;20438;-78
2021/12/29 02:41:25;;;;;;;69.60;19.67;;;;;;;;;;4885938;29;20871;-78
2021/12/29 02:43:59;;;;;;;71.32;19.77;;;;;;;;;;4888147;29;20429;-78
2021/12/29 02:46:26;;;;;;;63.05;20.13;;;;;;;;;;4898110;29;20508;-78
2021/12/29 02:48:59;;;;;;;79.05;20.80;;;7.70;99.90;;;;;;4895942;29;20417;-78
2021/12/29 02:51:26;;;;;;;74.05;21.20;;;7.80;99.90;;;;;;4885267;29;20781;-78
2021/12/29 02:53:52;;;;;;;76.95;23.25;;;;;;;;;;4897530;29;20417;-78
2021/12/29 02:56:19;;;;;;;75.45;22.02;;;;;;;;;;4886921;29;20948;-78
2021/12/29 02:58:45;;;;;;;82.50;23.45;;;;;;;;;;4890671;29;20851;-79
2021/12/29 03:01:13;;;;;;;76.25;23.33;;;;;;;;;;4876676;29;20845;-78
2021/12/29 03:03:39;;;;;;;75.28;24.40;;;;;;;;;;4890651;29;20814;-78
2021/12/29 03:06:06;;;;;;;76.63;25.73;;;;;;;;;;4900488;29;20428;-78
2021/12/29 03:08:32;;;;;;;81.75;26.30;;;;;;;;;;4892410;29;20789;-78
2021/12/29 03:10:58;;;;;;;80.55;26.98;;;;;;;;;;4897694;29;20440;-79
2021/12/29 03:13:26;;;;;;;92.13;28.90;;;;;;;;;;4890579;29;20425;-79
2021/12/29 03:15:53;;;;;;;78.95;28.77;;;;;;;;;;4896804;29;20433;-78
2021/12/29 03:18:19;;;;;;;85.15;29.98;;;;;;;;;;4891181;29;20437;-78
2021/12/29 03:20:46;;;;;;;89.88;30.48;;;;;;;;;;4893703;29;20432;-77
2021/12/29 03:23:12;;;;;;;75.07;29.75;;;;;;;;;;4896469;29;20417;-78
2021/12/29 03:25:38;;;;;;;89.18;31.15;;;;;;;;;;4889118;29;20517;-78
2021/12/29 03:28:05;;;;;;;85.95;31.15;;;;;;;;;;4887137;29;20421;-78
2021/12/29 03:30:33;;;;;;;86.00;31.55;;;;;;;;;;4885845;29;20423;-78
2021/12/29 03:33:05;;;;;;;86.03;32.13;;;;;;;;;;4911510;29;20425;-78
2021/12/29 03:35:36;;;;;;;95.90;33.35;;;;;;;;;;4880924;29;20516;-78
2021/12/29 03:38:04;;;;;;;85.47;31.67;;;8.20;99.90;;;;;;4886785;29;20438;-78
2021/12/29 03:40:31;;;;;;;92.03;33.92;;;;;;;;;;4893263;29;20504;-78
2021/12/29 03:42:57;;;;;;;99.20;33.10;;;8.00;99.90;;;;;;4890914;29;20803;-78
2021/12/29 03:45:24;;;;;;;83.80;31.77;;;;;;;;;;4880550;29;20446;-78
2021/12/29 03:47:50;;;;;;;88.47;32.20;;;;;;;;;;4916110;29;20413;-79
2021/12/29 03:50:16;;;;;;;82.10;32.25;;;;;;;;;;4897963;29;20417;-79
2021/12/29 03:52:43;;;;;;;83.85;31.63;;;;;;;;;;4896630;29;20521;-78
2021/12/29 03:55:09;;;;;;;83.82;32.00;;;;;;;;;;4882220;29;20497;-79
2021/12/29 03:57:35;;;;;;;88.03;31.77;;;;;;;;;;4888852;29;20532;-78
2021/12/29 04:00:02;;;;;;;86.57;31.52;;;;;;;;;;4909648;29;20476;-79
2021/12/29 04:02:28;;;;;;;84.50;30.85;;;;;;;;;;4909355;29;20423;-78
2021/12/29 04:04:55;;;;;;;77.18;30.05;;;;;;;;;;4918010;29;20486;-78
2021/12/29 04:07:21;;;;;;;75.28;29.77;;;;;;;;;;4901371;29;20976;-78
2021/12/29 04:09:47;;;;;;;75.32;29.20;;;;;;;;;;4902005;29;20413;-78
2021/12/29 04:12:13;;;;;;;72.50;28.98;;;;;;;;;;4890518;29;20507;-78
2021/12/29 04:14:39;;;;;;;73.70;28.38;;;;;;;;;;4884362;29;20468;-78
2021/12/29 04:17:10;;;;;;;65.32;28.00;;;;;;;;;;4895428;29;20417;-79
2021/12/29 04:20:54;;;;;;;68.28;27.23;;;;;;;;;;4901280;29;20477;-79
2021/12/29 04:22:26;;;;;;;67.25;27.50;;;;;;;;;;4900275;29;20417;-79
2021/12/29 04:24:52;;;;;;;65.10;26.58;;;;;;;;;;4892739;29;20430;-79
2021/12/29 04:27:21;;;;;;;70.53;27.40;;;;;;;;;;4909059;29;20417;-79
2021/12/29 04:29:48;;;;;;;68.30;26.98;;;;;;;;;;4899856;29;20448;-79
2021/12/29 04:32:14;;;;;;;62.67;26.87;;;;;;;;;;4889498;29;20423;-78
2021/12/29 04:34:40;;;;;;;66.20;27.05;;;;;;;;;;4898117;29;20915;-78
2021/12/29 04:37:06;;;;;;;69.00;26.98;;;;;;;;;;4907616;29;20408;-78
2021/12/29 04:39:32;;;;;;;66.18;26.95;;;;;;;;;;4901846;29;20437;-79
2021/12/29 04:41:59;;;;;;;64.68;26.10;;;;;;;;;;4892767;29;20937;-78
2021/12/29 04:44:27;;;;;;;62.55;24.98;;;;;;;;;;4899188;29;20500;-78
2021/12/29 04:46:55;;;;;;;63.88;24.85;;;;;;;;;;4893754;29;20762;-79
2021/12/29 04:49:26;;;;;;;61.58;25.08;;;;;;;;;;4879196;29;20425;-78
2021/12/29 04:52:02;;;;;;;58.23;24.70;;;;;;;;;;4905377;29;20426;-78
2021/12/29 04:54:28;;;;;;;62.55;24.42;;;;;;;;;;4901063;29;20925;-78
2021/12/29 04:56:55;;;;;;;59.57;23.67;;;;;;;;;;4898903;29;20610;-78
2021/12/29 04:59:22;;;;;;;58.03;23.02;;;;;;;;;;4904459;29;20439;-77
2021/12/29 05:01:48;;;;;;;57.03;22.48;;;8.00;99.90;;;;;;4895004;29;20485;-78
2021/12/29 05:04:21;;;;;;;57.22;23.08;;;;;;;;;;4895486;29;21017;-79
2021/12/29 05:09:35;;;;;;;52.65;22.58;;;;;;;;;;4901183;29;20421;-79
2021/12/29 05:12:01;;;;;;;49.42;22.30;;;;;;;;;;4900507;29;20754;-79
2021/12/29 05:14:28;;;;;;;54.75;23.17;;;;;;;;;;4906609;29;20806;-79
2021/12/29 05:16:54;;;;;;;57.35;23.40;;;;;;;;;;4900134;29;20496;-79
2021/12/29 05:19:20;;;;;;;53.78;23.50;;;;;;;;;;4884883;29;21016;-79
2021/12/29 05:21:46;;;;;;;53.45;23.00;;;;;;;;;;4887709;29;20419;-79
2021/12/29 05:24:12;;;;;;;58.72;24.05;;;;;;;;;;4893096;29;20443;-79
2021/12/29 05:26:38;;;;;;;56.20;23.07;;;;;;;;;;4892562;29;20542;-80
2021/12/29 05:29:05;;;;;;;56.38;22.80;;;;;;;;;;4915643;29;21020;-79
2021/12/29 05:31:31;;;;;;;54.70;22.73;;;;;;;;;;4897988;29;20421;-79
2021/12/29 05:33:58;;;;;;;57.90;22.98;;;;;;;;;;4901244;29;20459;-79
2021/12/29 05:36:24;;;;;;;57.72;20.98;;;;;;;;;;4898317;29;20428;-80
2021/12/29 05:38:52;;;;;;;54.72;21.65;;;;;;;;;;4882483;29;20439;-79
2021/12/29 05:41:18;;;;;;;56.03;22.13;;;;;;;;;;4881510;29;20429;-79
2021/12/29 05:43:44;;;;;;;68.55;22.75;;;;;;;;;;4888925;29;20423;-78
2021/12/29 05:46:10;;;;;;;65.90;22.83;;;;;;;;;;4883826;29;20943;-78
2021/12/29 05:48:36;;;;;;;62.30;22.00;;;;;;;;;;4903105;29;20438;-79
2021/12/29 05:51:02;;;;;;;63.25;23.10;;;;;;;;;;4904167;29;20707;-79
2021/12/29 05:53:29;;;;;;;65.03;22.80;;;;;;;;;;4902638;29;20421;-78
2021/12/29 05:55:55;;;;;;;63.53;21.97;;;;;;;;;;4898678;29;20483;-79
2021/12/29 05:58:21;;;;;;;67.43;21.88;;;;;;;;;;4885196;29;20532;-79
2021/12/29 06:00:47;;;;;;;63.95;21.33;;;;;;;;;;4889462;29;20421;-79
2021/12/29 06:03:13;;;;;;;63.03;21.75;;;;;;;;;;4910697;29;20837;-79
2021/12/29 06:05:39;;;;;;;63.10;21.85;;;;;;;;;;4903208;29;20417;-79
2021/12/29 06:08:06;;;;;;;62.90;21.00;;;8.10;99.90;;;;;;4883995;29;20935;-79
2021/12/29 06:10:32;;;;;;;66.97;21.08;;;;;;;;;;4913129;29;20798;-79
2021/12/29 06:12:58;;;;;;;85.70;22.80;;;;;;;;;;4892449;29;20519;-79
2021/12/29 06:15:25;;;;;;;69.22;22.33;;;;;;;;;;4886164;29;20429;-78
2021/12/29 06:17:51;;;;;;;63.80;21.35;;;;;;;;;;4901874;29;21126;-78
2021/12/29 06:20:17;;;;;;;67.57;22.10;;;;;;;;;;4900030;29;20464;-78
2021/12/29 06:22:44;;;;;;;65.85;21.45;;;;;;;;;;4906776;29;20417;-78
2021/12/29 06:25:12;;;;;;;74.27;23.53;;;;;;;;;;4900751;29;20482;-78
2021/12/29 06:27:38;;;;;;;71.83;22.40;;;;;;;;;;4899574;29;20469;-78
2021/12/29 06:30:10;;;;;;;68.15;24.20;;;8.20;99.90;;;;;;4906441;29;20428;-78
2021/12/29 06:32:36;;;;;;;76.18;24.50;;;;;;;;;;4894976;29;21040;-78
2021/12/29 06:35:03;;;;;;;87.05;25.95;;;;;;;;;;4891019;29;20419;-78
2021/12/29 06:37:29;;;;;;;84.90;26.30;;;;;;;;;;4874182;29;20419;-78
2021/12/29 06:39:55;;;;;;;98.03;27.40;;;;;;;;;;4902298;29;20417;-78
2021/12/29 06:42:21;;;;;;;98.88;27.70;;;;;;;;;;4904473;29;20921;-79
2021/12/29 06:44:48;;;;;;;90.37;26.37;;;;;;;;;;4908652;29;20535;-78
2021/12/29 06:47:14;;;;;;;90.45;26.25;;;;;;;;;;4894527;29;20416;-78
2021/12/29 06:49:40;;;;;;;89.05;26.60;;;;;;;;;;4889717;29;20920;-79
2021/12/29 06:52:07;;;;;;;106.67;26.50;;;;;;;;;;4891454;29;20428;-80
2021/12/29 06:54:34;;;;;;;73.13;22.83;;;;;;;;;;4898337;29;20822;-80
2021/12/29 06:57:00;;;;;;;70.28;22.73;;;;;;;;;;4886477;29;20429;-80
2021/12/29 06:59:26;;;;;;;69.47;22.83;;;;;;;;;;4896000;29;20502;-80
2021/12/29 07:01:52;;;;;;;65.38;22.50;;;;;;;;;;4895875;29;20501;-80
2021/12/29 07:04:18;;;;;;;72.30;22.63;;;;;;;;;;4900964;29;20417;-79
2021/12/29 07:06:45;;;;;;;75.93;22.75;;;;;;;;;;4896799;29;20428;-79
2021/12/29 07:09:11;;;;;;;71.05;21.90;;;;;;;;;;4901690;29;20423;-79
2021/12/29 07:11:37;;;;;;;72.75;22.55;;;;;;;;;;4910776;29;20425;-79
2021/12/29 07:14:09;;;;;;;77.15;23.65;;;;;;;;;;4907948;29;20432;-80
2021/12/29 07:16:36;;;;;;;90.35;23.08;;;;;;;;;;4882183;29;20910;-79
2021/12/29 07:19:02;;;;;;;76.47;23.67;;;;;;;;;;4898141;29;20447;-79
2021/12/29 07:21:28;;;;;;;88.93;24.38;;;;;;;;;;4903922;29;20430;-79
2021/12/29 07:23:55;;;;;;;74.03;22.60;;;;;;;;;;4898671;29;21008;-79
2021/12/29 07:26:21;;;;;;;83.03;23.98;;;;;;;;;;4897867;29;20498;-82
2021/12/29 07:28:47;;;;;;;80.50;23.90;;;;;;;;;;4898330;29;20425;-80
2021/12/29 07:31:14;;;;;;;82.20;23.52;;;;;;;;;;4893813;29;20425;-78
2021/12/29 07:33:40;;;;;;;90.43;24.77;;;;;;;;;;4886329;29;20772;-81
2021/12/29 07:36:06;;;;;;;95.95;25.02;;;;;;;;;;4891333;29;20921;-80
2021/12/29 07:38:32;;;;;;;91.47;24.38;;;;;;;;;;4885028;29;20931;-80
2021/12/29 07:40:59;;;;;;;94.07;24.58;;;;;;;;;;4896261;29;20777;-80
2021/12/29 07:43:25;;;;;;;86.22;23.80;;;;;;;;;;4884707;29;20423;-79
2021/12/29 07:45:54;;;;;;;91.70;24.65;;;;;;;;;;4873435;29;20903;-78
2021/12/29 07:48:25;;;;;;;95.00;24.15;;;;;;;;;;4887658;29;20510;-77
2021/12/29 07:50:51;;;;;;;80.80;24.20;;;;;;;;;;4905997;29;20794;-77
2021/12/29 07:53:17;;;;;;;88.67;24.07;;;;;;;;;;4902635;29;20946;-78
2021/12/29 07:55:43;;;;;;;76.22;23.00;;;;;;;;;;4882893;29;20910;-78
2021/12/29 07:58:09;;;;;;;92.88;24.77;;;;;;;;;;4889118;29;20476;-80
2021/12/29 08:00:36;;;;;;;93.80;24.07;;;;;;;;;;4871342;29;20504;-79
2021/12/29 08:03:02;;;;;;;94.35;24.02;;;;;;;;;;4887952;29;20496;-80
2021/12/29 08:05:28;;;;;;;98.63;24.92;;;;;;;;;;4887048;29;20417;-80
2021/12/29 08:07:54;;;;;;;98.70;23.67;;;;;;;;;;4889730;29;20417;-80
2021/12/29 08:10:20;;;;;;;106.20;23.73;;;;;;;;;;4885502;29;20637;-79
2021/12/29 08:12:46;;;;;;;109.93;23.20;;;;;;;;;;4900808;29;20502;-78
2021/12/29 08:15:13;;;;;;;161.38;25.52;;;;;;;;;;4881269;29;20927;-78
2021/12/29 08:17:39;;;;;;;143.57;24.87;;;;;;;;;;4882091;29;20440;-78
2021/12/29 08:20:07;;;;;;;152.17;24.63;;;8.10;99.90;;;;;;4873950;29;20484;-78
2021/12/29 08:22:33;;;;;;;174.88;25.92;;;;;;;;;;4871093;29;20508;-78
2021/12/29 08:24:59;;;;;;;194.25;27.30;;;;;;;;;;4872817;29;20433;-78
2021/12/29 08:27:25;;;;;;;190.40;27.20;;;;;;;;;;4892678;29;20425;-78
2021/12/29 08:29:52;;;;;;;223.23;28.02;;;;;;;;;;4903822;29;20447;-78
2021/12/29 08:32:18;;;;;;;191.02;26.83;;;;;;;;;;4888403;29;20433;-79
2021/12/29 08:34:44;;;;;;;200.02;26.83;;;;;;;;;;4883928;29;20445;-78
2021/12/29 08:37:10;;;;;;;157.70;26.23;;;;;;;;;;4901012;29;21726;-78
2021/12/29 08:39:36;;;;;;;120.15;23.35;;;;;;;;;;4877227;29;20452;-78
2021/12/29 08:42:03;;;;;;;119.30;23.58;;;;;;;;;;4888089;29;20437;-77
2021/12/29 08:44:31;;;;;;;128.38;22.58;;;;;;;;;;4882140;29;20434;-77
2021/12/29 08:46:58;;;;;;;121.65;22.58;;;;;;;;;;4897125;29;20552;-78
2021/12/29 08:49:24;;;;;;;154.45;23.75;;;;;;;;;;4872335;29;20443;-78
2021/12/29 08:51:50;;;;;;;118.35;22.90;;;;;;;;;;4886001;29;20524;-78
2021/12/29 08:54:16;;;;;;;111.63;21.38;;;;;;;;;;4886953;29;20794;-77
2021/12/29 08:56:42;;;;;;;139.90;23.23;;;;;;;;;;4876707;29;20472;-77
2021/12/29 08:59:10;;;;;;;119.47;22.40;;;;;;;;;;4890353;29;20446;-76
2021/12/29 09:01:36;;;;;;;153.98;23.58;;;;;;;;;;4893614;29;20448;-77
2021/12/29 09:04:02;;;;;;;130.32;22.45;;;;;;;;;;4883349;29;20466;-76
2021/12/29 09:06:28;;;;;;;155.02;24.35;;;;;;;;;;4887745;29;20494;-76
2021/12/29 09:08:54;;;;;;;157.70;25.40;;;;;;;;;;4880791;29;20437;-76
2021/12/29 09:11:21;;;;;;;146.65;25.88;;;;;;;;;;4896100;29;20516;-76
2021/12/29 09:13:47;;;;;;;115.35;23.17;;;;;;;;;;4898435;29;20437;-77
2021/12/29 09:16:13;;;;;;;125.30;23.38;;;;;;;;;;4876282;29;20441;-76
2021/12/29 09:18:39;;;;;;;135.07;25.10;;;;;;;;;;4888136;29;20835;-77
2021/12/29 09:21:10;;;;;;;144.38;26.52;;;;;;;;;;4895260;29;20429;-76
2021/12/29 09:23:37;;;;;;;99.45;23.20;;;;;;;;;;4890358;29;20439;-77
2021/12/29 09:26:03;;;;;;;94.70;22.55;;;;;;;;;;4891505;29;20828;-77
2021/12/29 09:28:30;;;;;;;52.83;18.17;;;;;;;;;;4890224;29;20475;-77
2021/12/29 09:30:56;;;;;;;47.58;16.40;;;;;;;;;;4889392;29;20550;-77
2021/12/29 09:33:22;;;;;;;46.42;15.75;;;;;;;;;;4893746;29;20882;-76
2021/12/29 09:35:57;;;;;;;44.20;14.73;;;;;;;;;;4892702;29;20438;-76
2021/12/29 09:38:23;;;;;;;38.90;13.75;;;;;;;;;;4885217;29;20449;-73
2021/12/29 09:40:50;;;;;;;37.22;13.68;;;8.50;99.90;;;;;;4880419;29;20441;-72
2021/12/29 09:43:18;;;;;;;34.80;13.20;;;8.60;99.90;;;;;;4893427;29;20470;-73
2021/12/29 09:45:45;;;;;;;38.30;12.73;;;;;;;;;;4896656;29;20440;-72
2021/12/29 09:48:11;;;;;;;32.20;12.38;;;;;;;;;;4876124;29;20848;-73
2021/12/29 09:50:38;;;;;;;33.60;13.32;;;;;;;;;;4890007;29;20520;-73
2021/12/29 09:53:04;;;;;;;31.75;12.70;;;;;;;;;;4884473;29;20522;-73
2021/12/29 09:55:30;;;;;;;31.33;12.52;;;;;;;;;;4911016;29;20985;-73
2021/12/29 09:57:58;;;;;;;35.72;13.48;;;;;;;;;;4892593;29;20501;-75
2021/12/29 10:00:35;;;;;;;37.72;13.63;;;;;;;;;;4888811;29;20429;-73
2021/12/29 10:03:04;;;;;;;28.00;11.75;;;;;;;;;;4898429;29;20489;-73
2021/12/29 10:05:31;;;;;;;29.15;11.70;;;8.80;99.90;;;;;;4892385;29;20832;-76
2021/12/29 10:08:19;;;;;;;32.28;11.60;;;9.20;99.90;;;;;;4892086;29;20513;-75
2021/12/29 10:10:51;;;;;;;30.42;13.43;;;8.90;99.90;;;;;;4912373;29;20443;-73
2021/12/29 10:13:17;;;;;;;42.20;14.55;;;9.00;99.90;;;;;;4883019;29;20437;-76
2021/12/29 10:15:45;;;;;;;30.20;13.23;;;;;;;;;;4894852;29;20528;-73
2021/12/29 10:18:15;;;;;;;26.05;12.10;;;9.10;99.90;;;;;;4870012;29;20460;-74
2021/12/29 10:21:04;;;;;;;26.25;13.20;;;;;;;;;;4892508;29;20512;-74
2021/12/29 10:23:32;;;;;;;29.97;12.30;;;;;;;;;;4875497;29;20430;-74
2021/12/29 10:26:12;;;;;;;33.80;12.97;;;8.90;99.90;;;;;;4891135;29;20429;-74
2021/12/29 10:28:41;;;;;;;27.60;12.15;;;8.90;99.90;;;;;;4897577;29;20433;-73
2021/12/29 10:31:18;;;;;;;30.40;12.48;;;;;;;;;;4880804;29;20463;-73
2021/12/29 10:33:46;;;;;;;28.33;12.32;;;;;;;;;;4895645;29;20490;-73
2021/12/29 10:36:24;;;;;;;29.30;11.85;;;9.10;99.90;;;;;;4880667;29;20445;-74
2021/12/29 10:38:58;;;;;;;29.20;13.10;;;;;;;;;;4886483;29;20550;-74
2021/12/29 10:41:24;;;;;;;27.10;11.73;;;;;;;;;;4881275;29;20433;-74
2021/12/29 10:43:52;;;;;;;30.07;12.00;;;;;;;;;;4898022;29;20425;-74
2021/12/29 10:46:19;;;;;;;27.25;12.80;;;;;;;;;;4892986;29;20443;-74
2021/12/29 10:48:47;;;;;;;35.53;12.80;;;;;;;;;;4895768;29;20876;-74
2021/12/29 10:51:13;;;;;;;33.35;13.32;;;;;;;;;;4892050;29;20755;-74
2021/12/29 10:53:39;;;;;;;30.30;12.90;;;9.00;99.90;;;;;;4883967;29;20538;-74
2021/12/29 10:56:06;;;;;;;35.73;12.93;;;;;;;;;;4902842;29;20508;-73
2021/12/29 10:58:35;;;;;;;32.45;11.82;;;8.80;99.90;;;;;;4875715;29;20444;-73
2021/12/29 11:01:13;;;;;;;32.25;12.02;;;9.00;99.90;;;;;;4896467;29;20433;-74
2021/12/29 11:03:57;;;;;;;30.33;11.90;;;8.90;99.90;;;;;;4883424;29;20458;-74
2021/12/29 11:06:24;;;;;;;49.28;12.95;;;;;;;;;;4900062;29;20739;-74
2021/12/29 11:08:50;;;;;;;27.35;10.80;;;;;;;;;;4883606;29;20471;-74
2021/12/29 11:11:17;;;;;;;31.67;10.23;;;;;;;;;;4885563;29;20984;-74
2021/12/29 11:13:43;;;;;;;34.38;10.70;;;;;;;;;;4898200;29;20437;-74
2021/12/29 11:16:09;;;;;;;47.17;13.32;;;;;;;;;;4894872;29;20437;-74
2021/12/29 11:18:50;;;;;;;32.25;13.15;;;9.00;99.90;;;;;;4887682;29;20456;-74
2021/12/29 11:21:27;;;;;;;33.28;11.32;;;;;;;;;;4894195;29;20417;-74
2021/12/29 11:23:54;;;;;;;31.50;11.15;;;;;;;;;;4897873;29;20428;-74
2021/12/29 11:26:30;;;;;;;26.63;10.25;;;;;;;;;;4902155;29;20520;-74
2021/12/29 11:29:04;;;;;;;28.73;10.82;;;;;;;;;;4885415;29;20438;-74
2021/12/29 11:31:40;;;;;;;29.25;10.88;;;9.20;99.90;;;;;;4896989;29;20415;-75
2021/12/29 11:34:32;;;;;;;29.35;9.52;;;;;;;;;;4891806;29;20433;-74
2021/12/29 11:37:01;;;;;;;28.38;9.75;;;;;;;;;;4888200;29;20421;-74
2021/12/29 11:39:28;;;;;;;30.02;9.38;;;9.30;99.90;;;;;;4888093;29;20862;-74
2021/12/29 11:41:54;;;;;;;57.38;13.82;;;;;;;;;;4882525;29;20465;-74
2021/12/29 11:44:21;;;;;;;40.60;11.47;;;;;;;;;;4896132;29;20504;-75
2021/12/29 11:46:47;;;;;;;24.10;9.00;;;;;;;;;;4898915;29;20429;-75
2021/12/29 11:49:13;;;;;;;27.42;10.23;;;;;;;;;;4881231;29;20434;-75
2021/12/29 11:52:05;;;;;;;26.00;9.23;;;9.20;99.90;;;;;;4887134;29;20427;-75
2021/12/29 11:55:02;;;;;;;26.90;11.32;;;9.30;99.90;;;;;;4882655;29;20427;-75
2021/12/29 11:57:31;;;;;;;22.75;9.75;;;9.20;99.90;;;;;;4888284;29;20433;-74
2021/12/29 12:00:26;;;;;;;26.23;8.85;;;;;;;;;;4896984;29;20437;-76
2021/12/29 12:02:54;;;;;;;26.17;7.80;;;;;;;;;;4878842;29;20422;-76
2021/12/29 12:05:22;;;;;;;24.47;7.90;;;;;;;;;;4882870;29;20764;-76
2021/12/29 12:07:49;;;;;;;22.60;7.38;;;;;;;;;;4897069;29;20424;-80
2021/12/29 12:10:35;;;;;;;19.73;6.72;;;9.30;99.90;;;;;;4889544;29;20430;-80
2021/12/29 12:13:18;;;;;;;20.58;7.75;;;9.40;99.90;;;;;;4884848;29;20432;-79
2021/12/29 12:15:44;;;;;;;24.40;9.55;;;;;;;;;;4902082;29;20934;-79
2021/12/29 12:18:11;;;;;;;18.93;7.30;;;;;;;;;;4911409;29;20936;-75
2021/12/29 12:20:44;;;;;;;18.98;8.07;;;;;;;;;;4884406;29;20425;-76
2021/12/29 12:23:21;;;;;;;19.00;6.93;;;;;;;;;;4902616;29;20480;-74
2021/12/29 12:25:47;;;;;;;16.48;7.63;;;;;;;;;;4895290;29;20500;-74
2021/12/29 12:28:21;;;;;;;18.90;7.60;;;9.10;99.90;;;;;;4916737;29;20769;-74
2021/12/29 12:30:49;;;;;;;16.85;6.80;;;;;;;;;;4892401;29;20517;-74
2021/12/29 12:33:23;;;;;;;19.15;6.70;;;;;;;;;;4902696;29;20519;-75
2021/12/29 12:35:50;;;;;;;19.52;7.43;;;;;;;;;;4891721;29;20543;-79
2021/12/29 12:38:17;;;;;;;15.90;6.43;;;;;;;;;;4898795;29;20428;-79
2021/12/29 12:40:43;;;;;;;18.37;6.37;;;;;;;;;;4916391;29;20467;-80
2021/12/29 12:43:16;;;;;;;16.73;6.72;;;8.90;99.90;;;;;;4910486;29;20429;-78
2021/12/29 12:45:51;;;;;;;16.08;6.78;;;8.90;99.90;;;;;;4908436;29;20431;-79
2021/12/29 12:48:28;;;;;;;18.07;7.30;;;;;;;;;;4887027;29;20438;-80
2021/12/29 12:50:55;;;;;;;16.60;6.95;;;;;;;;;;4889928;29;20420;-81
2021/12/29 12:53:33;;;;;;;17.73;6.50;;;8.70;99.90;;;;;;4887860;29;21996;-79
2021/12/29 12:56:00;;;;;;;13.57;6.78;;;;;;;;;;4917727;29;20921;-80
2021/12/29 12:58:29;;;;;;;18.48;6.80;;;;;;;;;;4899416;29;20433;-81
2021/12/29 13:01:00;;;;;;;17.67;7.20;;;;;;;;;;4911167;29;20488;-81
2021/12/29 13:03:26;;;;;;;18.33;7.45;;;;;;;;;;4900232;29;20841;-83
2021/12/29 13:05:57;;;;;;;17.57;7.67;;;;;;;;;;4884035;29;20439;-81
2021/12/29 13:08:25;;;;;;;18.02;8.68;;;;;;;;;;4890442;29;20421;-82
2021/12/29 13:10:54;;;;;;;21.27;9.35;;;8.60;99.90;;;;;;4897120;29;20421;-80
2021/12/29 13:13:22;;;;;;;19.75;8.38;;;;;;;;;;4898784;29;20455;-80
2021/12/29 13:15:54;;;;;;;18.40;7.60;;;8.60;99.90;;;;;;4893887;29;20476;-80
2021/12/29 13:18:21;;;;;;;16.15;7.57;;;;;;;;;;4912536;29;20540;-81
2021/12/29 13:20:48;;;;;;;18.67;9.00;;;;;;;;;;4888792;29;20425;-81
2021/12/29 13:23:15;;;;;;;23.73;8.57;;;;;;;;;;4895990;29;20477;-80
2021/12/29 13:25:43;;;;;;;18.77;8.82;;;;;;;;;;4895295;29;20419;-80
2021/12/29 13:28:13;;;;;;;21.42;9.52;;;;;;;;;;4897347;29;20421;-81
2021/12/29 13:30:41;;;;;;;24.05;9.55;;;;;;;;;;4897805;29;20417;-80
2021/12/29 13:33:07;;;;;;;20.00;9.30;;;;;;;;;;4879533;29;20427;-82
2021/12/29 13:35:36;;;;;;;22.50;9.40;;;;;;;;;;4886279;29;20921;-74
2021/12/29 13:38:05;;;;;;;21.77;9.00;;;;;;;;;;4909707;29;20428;-74
2021/12/29 13:40:37;;;;;;;19.60;10.32;;;;;;;;;;4912069;29;20448;-74
2021/12/29 13:43:08;;;;;;;23.20;9.55;;;;;;;;;;4906095;29;20429;-75
2021/12/29 13:45:34;;;;;;;24.23;10.07;;;;;;;;;;4916702;29;20413;-75
2021/12/29 13:48:01;;;;;;;43.45;11.38;;;;;;;;;;4910184;29;20446;-76
2021/12/29 13:50:27;;;;;;;25.42;10.90;;;;;;;;;;4883300;29;20766;-76
2021/12/29 13:53:02;;;;;;;26.42;11.15;;;;;;;;;;4894344;29;20422;-76
2021/12/29 13:55:30;;;;;;;29.23;13.63;;;;;;;;;;4895866;29;20429;-76
2021/12/29 13:57:57;;;;;;;32.88;13.43;;;;;;;;;;4897405;29;20429;-76
2021/12/29 14:00:23;;;;;;;38.50;13.77;;;;;;;;;;4882656;29;20420;-76
2021/12/29 14:02:49;;;;;;;27.33;11.77;;;;;;;;;;4883468;29;20908;-76
2021/12/29 14:05:16;;;;;;;28.60;11.43;;;;;;;;;;4883671;29;20420;-76
2021/12/29 14:07:42;;;;;;;27.48;11.20;;;;;;;;;;4868070;29;20470;-77
2021/12/29 14:10:08;;;;;;;25.52;11.90;;;;;;;;;;4898264;29;20417;-77
2021/12/29 14:12:36;;;;;;;27.13;11.80;;;;;;;;;;4890324;29;20455;-77